createdAt,value
2022-10-10T00:00:36.312Z,88.15
2022-10-10T00:01:40.483Z,88.35
2022-10-10T00:02:43.548Z,88.14
2022-10-10T00:03:47.603Z,88.61
2022-10-10T00:04:53.209Z,88.48
2022-10-10T00:05:58.730Z,88.37
2022-10-10T00:07:01.723Z,88.50
2022-10-10T00:08:08.535Z,88.42
2022-10-10T00:09:11.706Z,88.68
2022-10-10T00:10:15.777Z,88.55
2022-10-10T00:11:21.550Z,88.89
2022-10-10T00:12:25.816Z,88.92
2022-10-10T00:13:28.965Z,88.79
2022-10-10T00:14:33.236Z,89.21
2022-10-10T00:15:36.274Z,88.88
2022-10-10T00:16:40.427Z,89.25
2022-10-10T00:17:44.066Z,89.25
2022-10-10T00:18:48.197Z,89.18
2022-10-10T00:19:51.241Z,89.60
2022-10-10T00:20:55.408Z,89.77
2022-10-10T00:21:59.856Z,89.78
2022-10-10T00:23:04.017Z,89.66
2022-10-10T00:24:07.508Z,89.83
2022-10-10T00:25:12.345Z,89.57
2022-10-10T00:26:18.906Z,90.03
2022-10-10T00:27:23.653Z,89.89
2022-10-10T00:28:26.763Z,90.17
2022-10-10T00:29:30.886Z,90.07
2022-10-10T00:30:33.825Z,90.07
2022-10-10T00:31:37.986Z,90.09
2022-10-10T00:32:41.011Z,89.74
2022-10-10T00:33:45.217Z,89.99
2022-10-10T00:34:48.367Z,89.94
2022-10-10T00:35:52.504Z,89.94
2022-10-10T00:36:55.472Z,90.04
2022-10-10T00:38:01.084Z,90.02
2022-10-10T00:39:04.294Z,90.67
2022-10-10T00:40:09.596Z,90.17
2022-10-10T00:41:12.892Z,90.09
2022-10-10T00:42:18.566Z,90.12
2022-10-10T00:43:22.271Z,90.43
2022-10-10T00:44:28.058Z,90.20
2022-10-10T00:45:37.123Z,90.10
2022-10-10T00:46:42.077Z,90.41
2022-10-10T00:47:45.149Z,90.42
2022-10-10T00:48:49.326Z,90.44
2022-10-10T00:49:52.358Z,90.47
2022-10-10T00:50:58.977Z,90.34
2022-10-10T00:52:02.155Z,90.34
2022-10-10T00:53:08.995Z,90.29
2022-10-10T00:54:13.408Z,90.47
2022-10-10T00:55:18.544Z,90.38
2022-10-10T00:56:27.219Z,90.31
2022-10-10T00:57:30.209Z,90.42
2022-10-10T00:58:35.647Z,90.41
2022-10-10T00:59:40.537Z,90.57
2022-10-10T01:00:44.937Z,90.26
2022-10-10T01:01:48.415Z,90.04
2022-10-10T01:02:53.059Z,90.43
2022-10-10T01:03:58.373Z,90.38
2022-10-10T01:05:02.385Z,90.46
2022-10-10T01:06:06.265Z,90.51
2022-10-10T01:07:13.163Z,90.38
2022-10-10T01:08:18.364Z,90.24
2022-10-10T01:09:22.593Z,90.13
2022-10-10T01:10:26.029Z,89.96
2022-10-10T01:11:52.478Z,90.17
2022-10-10T01:13:04.563Z,89.94
2022-10-10T01:14:18.125Z,90.06
2022-10-10T01:15:26.804Z,89.63
2022-10-10T01:16:37.357Z,89.17
2022-10-10T01:17:45.493Z,88.86
2022-10-10T01:18:56.607Z,89.05
2022-10-10T01:20:33.275Z,88.89
2022-10-10T01:21:40.413Z,88.88
2022-10-10T01:22:53.473Z,88.58
2022-10-10T01:24:42.436Z,88.29
2022-10-10T01:25:58.354Z,87.92
2022-10-10T01:27:37.436Z,88.47
2022-10-10T01:28:45.974Z,88.68
2022-10-10T01:29:53.474Z,88.65
2022-10-10T01:30:57.132Z,87.98
2022-10-10T01:32:06.326Z,88.04
2022-10-10T01:33:27.345Z,88.27
2022-10-10T01:34:35.975Z,87.84
2022-10-10T01:35:49.082Z,87.91
2022-10-10T01:36:58.200Z,87.89
2022-10-10T01:38:08.800Z,87.49
2022-10-10T01:39:21.080Z,87.44
2022-10-10T01:40:31.247Z,87.29
2022-10-10T01:41:39.306Z,87.69
2022-10-10T01:42:48.399Z,87.45
2022-10-10T01:43:55.233Z,87.52
2022-10-10T01:44:59.340Z,87.63
2022-10-10T01:46:10.261Z,87.46
2022-10-10T01:47:15.042Z,87.57
2022-10-10T01:48:22.372Z,87.47
2022-10-10T01:49:30.470Z,87.70
2022-10-10T01:50:37.788Z,87.34
2022-10-10T01:51:50.787Z,87.91
2022-10-10T01:53:04.152Z,87.31
2022-10-10T01:54:18.487Z,87.34
2022-10-10T01:55:32.840Z,87.53
2022-10-10T01:56:40.916Z,87.35
2022-10-10T01:57:51.823Z,87.63
2022-10-10T01:59:14.653Z,87.48
2022-10-10T02:00:18.812Z,87.79
2022-10-10T02:01:27.770Z,87.39
2022-10-10T02:02:40.809Z,87.82
2022-10-10T02:03:47.416Z,87.72
2022-10-10T02:04:54.185Z,87.48
2022-10-10T02:06:02.190Z,87.71
2022-10-10T02:07:08.852Z,87.28
2022-10-10T02:08:16.956Z,87.25
2022-10-10T02:09:23.772Z,87.76
2022-10-10T02:10:29.955Z,87.16
2022-10-10T02:11:34.802Z,87.65
2022-10-10T02:12:40.026Z,87.37
2022-10-10T02:13:45.804Z,87.27
2022-10-10T02:14:53.225Z,87.51
2022-10-10T02:15:58.320Z,87.62
2022-10-10T02:17:02.816Z,87.31
2022-10-10T02:18:07.044Z,87.51
2022-10-10T02:19:13.632Z,87.35
2022-10-10T02:20:20.511Z,87.28
2022-10-10T02:21:26.250Z,87.27
2022-10-10T02:22:30.470Z,87.45
2022-10-10T02:23:35.763Z,87.36
2022-10-10T02:24:38.914Z,87.16
2022-10-10T02:25:43.463Z,87.15
2022-10-10T02:26:50.195Z,86.99
2022-10-10T02:28:01.316Z,87.08
2022-10-10T02:29:06.831Z,86.67
2022-10-10T02:30:14.293Z,86.80
2022-10-10T02:31:21.512Z,87.29
2022-10-10T02:32:33.749Z,87.14
2022-10-10T02:33:44.915Z,87.14
2022-10-10T02:34:51.038Z,87.15
2022-10-10T02:35:55.224Z,87.37
2022-10-10T02:37:00.930Z,86.71
2022-10-10T02:38:06.275Z,87.35
2022-10-10T02:39:10.575Z,87.30
2022-10-10T02:40:17.942Z,86.93
2022-10-10T02:41:22.830Z,86.80
2022-10-10T02:42:27.246Z,87.16
2022-10-10T02:43:32.619Z,87.24
2022-10-10T02:44:35.985Z,87.36
2022-10-10T02:45:42.103Z,87.57
2022-10-10T02:46:45.792Z,87.19
2022-10-10T02:47:49.782Z,87.16
2022-10-10T02:48:53.339Z,87.14
2022-10-10T02:49:57.609Z,87.00
2022-10-10T02:51:00.801Z,87.09
2022-10-10T02:52:05.668Z,87.05
2022-10-10T02:53:09.461Z,87.66
2022-10-10T02:54:13.488Z,88.26
2022-10-10T02:55:17.517Z,88.04
2022-10-10T02:56:22.281Z,88.30
2022-10-10T02:57:25.274Z,88.07
2022-10-10T02:58:29.345Z,88.28
2022-10-10T02:59:32.511Z,87.83
2022-10-10T03:00:36.652Z,88.08
2022-10-10T03:01:41.325Z,87.67
2022-10-10T03:02:46.401Z,87.67
2022-10-10T03:03:49.529Z,87.36
2022-10-10T03:04:53.589Z,87.64
2022-10-10T03:05:56.551Z,87.42
2022-10-10T03:07:00.592Z,87.41
2022-10-10T03:08:05.891Z,87.76
2022-10-10T03:09:13.322Z,87.45
2022-10-10T03:10:16.411Z,87.58
2022-10-10T03:11:20.445Z,87.43
2022-10-10T03:12:23.441Z,87.47
2022-10-10T03:13:27.613Z,87.70
2022-10-10T03:14:31.029Z,87.80
2022-10-10T03:15:34.958Z,87.23
2022-10-10T03:16:37.953Z,87.19
2022-10-10T03:17:43.424Z,87.30
2022-10-10T03:18:46.950Z,87.50
2022-10-10T03:19:51.212Z,87.27
2022-10-10T03:20:56.257Z,87.37
2022-10-10T03:22:00.371Z,87.37
2022-10-10T03:23:03.625Z,87.44
2022-10-10T03:24:08.173Z,87.65
2022-10-10T03:25:11.140Z,87.55
2022-10-10T03:26:15.261Z,87.51
2022-10-10T03:27:18.311Z,87.33
2022-10-10T03:28:22.815Z,87.66
2022-10-10T03:29:25.881Z,87.31
2022-10-10T03:30:30.056Z,86.96
2022-10-10T03:31:33.379Z,86.92
2022-10-10T03:32:37.543Z,87.15
2022-10-10T03:33:41.932Z,87.17
2022-10-10T03:34:46.349Z,87.32
2022-10-10T03:35:49.829Z,87.42
2022-10-10T03:36:53.981Z,87.29
2022-10-10T03:37:57.091Z,87.14
2022-10-10T03:39:01.142Z,87.33
2022-10-10T03:40:04.569Z,87.35
2022-10-10T03:41:08.699Z,87.44
2022-10-10T03:42:11.660Z,87.38
2022-10-10T03:43:16.944Z,87.30
2022-10-10T03:44:19.884Z,87.23
2022-10-10T03:45:24.092Z,87.61
2022-10-10T03:46:27.038Z,87.46
2022-10-10T03:47:31.129Z,87.21
2022-10-10T03:48:34.330Z,87.13
2022-10-10T03:49:39.867Z,87.36
2022-10-10T03:50:43.175Z,87.25
2022-10-10T03:51:47.203Z,86.98
2022-10-10T03:52:50.397Z,86.96
2022-10-10T03:53:56.051Z,86.91
2022-10-10T03:54:59.052Z,86.71
2022-10-10T03:56:03.071Z,86.62
2022-10-10T03:57:06.089Z,86.73
2022-10-10T03:58:10.254Z,86.65
2022-10-10T03:59:13.392Z,86.77
2022-10-10T04:00:17.441Z,86.62
2022-10-10T04:01:20.416Z,86.74
2022-10-10T04:02:24.539Z,86.56
2022-10-10T04:03:27.772Z,86.98
2022-10-10T04:04:32.226Z,86.72
2022-10-10T04:05:37.860Z,86.88
2022-10-10T04:06:41.868Z,87.01
2022-10-10T04:07:44.781Z,87.56
2022-10-10T04:08:48.879Z,87.81
2022-10-10T04:09:51.997Z,87.86
2022-10-10T04:10:57.137Z,87.87
2022-10-10T04:12:00.172Z,88.05
2022-10-10T04:13:04.371Z,88.31
2022-10-10T04:14:07.410Z,88.59
2022-10-10T04:15:12.414Z,88.12
2022-10-10T04:16:15.822Z,88.20
2022-10-10T04:17:19.832Z,87.99
2022-10-10T04:18:23.723Z,87.76
2022-10-10T04:19:27.923Z,87.91
2022-10-10T04:20:30.921Z,87.94
2022-10-10T04:21:37.052Z,87.96
2022-10-10T04:22:40.052Z,88.06
2022-10-10T04:23:44.724Z,87.89
2022-10-10T04:24:48.538Z,88.14
2022-10-10T04:25:54.180Z,87.82
2022-10-10T04:26:57.761Z,87.69
2022-10-10T04:28:02.186Z,87.86
2022-10-10T04:29:05.870Z,88.07
2022-10-10T04:30:10.810Z,87.93
2022-10-10T04:31:14.008Z,87.70
2022-10-10T04:32:17.990Z,87.75
2022-10-10T04:33:21.276Z,87.60
2022-10-10T04:34:25.304Z,87.49
2022-10-10T04:35:28.462Z,87.64
2022-10-10T04:36:32.703Z,87.39
2022-10-10T04:37:37.678Z,87.40
2022-10-10T04:38:42.026Z,87.78
2022-10-10T04:39:45.066Z,87.55
2022-10-10T04:40:50.131Z,87.61
2022-10-10T04:41:53.167Z,87.66
2022-10-10T04:42:57.368Z,87.49
2022-10-10T04:44:00.677Z,87.54
2022-10-10T04:45:05.125Z,87.49
2022-10-10T04:46:08.231Z,87.29
2022-10-10T04:47:13.222Z,87.32
2022-10-10T04:48:16.348Z,87.23
2022-10-10T04:49:20.315Z,87.43
2022-10-10T04:50:23.932Z,86.99
2022-10-10T04:51:28.656Z,87.06
2022-10-10T04:52:31.690Z,87.25
2022-10-10T04:53:37.595Z,87.01
2022-10-10T04:54:40.945Z,87.17
2022-10-10T04:55:45.713Z,87.42
2022-10-10T04:56:48.863Z,87.37
2022-10-10T04:57:52.918Z,87.12
2022-10-10T04:58:55.910Z,87.30
2022-10-10T04:59:59.941Z,87.45
2022-10-10T05:01:04.478Z,87.51
2022-10-10T05:02:08.578Z,87.43
2022-10-10T05:03:12.845Z,87.63
2022-10-10T05:04:17.052Z,87.74
2022-10-10T05:05:20.031Z,87.45
2022-10-10T05:06:24.070Z,87.39
2022-10-10T05:07:27.040Z,87.43
2022-10-10T05:08:31.034Z,87.47
2022-10-10T05:09:36.029Z,87.60
2022-10-10T05:10:40.731Z,87.70
2022-10-10T05:11:43.721Z,87.61
2022-10-10T05:12:47.886Z,87.78
2022-10-10T05:13:51.201Z,87.76
2022-10-10T05:14:55.321Z,88.08
2022-10-10T05:15:58.292Z,87.97
2022-10-10T05:17:02.599Z,87.90
2022-10-10T05:18:05.913Z,88.07
2022-10-10T05:19:09.921Z,88.18
2022-10-10T05:20:12.933Z,88.04
2022-10-10T05:21:16.971Z,88.27
2022-10-10T05:22:19.910Z,88.48
2022-10-10T05:23:24.283Z,88.48
2022-10-10T05:24:27.330Z,88.75
2022-10-10T05:25:32.863Z,88.55
2022-10-10T05:26:38.655Z,88.54
2022-10-10T05:27:46.408Z,88.30
2022-10-10T05:28:49.374Z,88.63
2022-10-10T05:29:53.643Z,88.76
2022-10-10T05:30:56.591Z,88.90
2022-10-10T05:32:00.613Z,89.25
2022-10-10T05:33:03.534Z,89.33
2022-10-10T05:34:07.558Z,89.51
2022-10-10T05:35:10.554Z,89.93
2022-10-10T05:36:15.114Z,90.15
2022-10-10T05:37:18.354Z,90.56
2022-10-10T05:38:22.354Z,90.02
2022-10-10T05:39:25.539Z,89.78
2022-10-10T05:40:29.634Z,90.09
2022-10-10T05:41:34.376Z,90.25
2022-10-10T05:42:38.425Z,90.77
2022-10-10T05:43:41.568Z,91.07
2022-10-10T05:44:45.571Z,91.00
2022-10-10T05:45:48.573Z,91.07
2022-10-10T05:46:52.725Z,90.92
2022-10-10T05:47:55.854Z,91.47
2022-10-10T05:48:59.881Z,91.32
2022-10-10T05:50:02.760Z,91.27
2022-10-10T05:51:08.779Z,91.31
2022-10-10T05:52:11.740Z,91.19
2022-10-10T05:53:15.862Z,91.47
2022-10-10T05:54:19.962Z,91.57
2022-10-10T05:55:23.158Z,91.69
2022-10-10T05:56:27.252Z,91.66
2022-10-10T05:57:31.761Z,91.81
2022-10-10T05:58:35.884Z,92.02
2022-10-10T05:59:38.804Z,91.75
2022-10-10T06:00:42.879Z,91.77
2022-10-10T06:01:45.949Z,92.76
2022-10-10T06:02:50.423Z,93.28
2022-10-10T06:03:56.235Z,93.75
2022-10-10T06:05:00.300Z,93.36
2022-10-10T06:06:03.751Z,93.94
2022-10-10T06:07:07.744Z,94.32
2022-10-10T06:08:12.322Z,94.35
2022-10-10T06:09:16.730Z,94.82
2022-10-10T06:10:19.922Z,94.23
2022-10-10T06:11:26.190Z,94.53
2022-10-10T06:12:29.217Z,94.36
2022-10-10T06:13:35.108Z,94.01
2022-10-10T06:14:38.162Z,94.27
2022-10-10T06:15:43.060Z,94.47
2022-10-10T06:16:46.353Z,94.99
2022-10-10T06:17:50.364Z,94.79
2022-10-10T06:18:53.975Z,95.47
2022-10-10T06:19:58.105Z,95.26
2022-10-10T06:21:02.564Z,94.80
2022-10-10T06:22:06.770Z,94.95
2022-10-10T06:23:10.012Z,94.74
2022-10-10T06:24:14.012Z,95.33
2022-10-10T06:25:38.420Z,95.58
2022-10-10T06:26:41.219Z,95.44
2022-10-10T06:27:44.292Z,96.22
2022-10-10T06:28:51.088Z,96.56
2022-10-10T06:29:54.202Z,96.46
2022-10-10T06:31:02.020Z,96.66
2022-10-10T06:32:05.031Z,96.68
2022-10-10T06:33:09.157Z,96.68
2022-10-10T06:34:13.188Z,96.55
2022-10-10T06:35:16.331Z,96.57
2022-10-10T06:36:21.238Z,95.98
2022-10-10T06:37:24.472Z,95.93
2022-10-10T06:38:28.994Z,95.56
2022-10-10T06:39:32.172Z,95.55
2022-10-10T06:40:36.279Z,95.37
2022-10-10T06:41:39.394Z,94.66
2022-10-10T06:42:47.472Z,94.39
2022-10-10T06:43:56.100Z,93.44
2022-10-10T06:44:59.276Z,93.17
2022-10-10T06:46:03.469Z,92.84
2022-10-10T06:47:06.522Z,92.15
2022-10-10T06:48:11.213Z,91.63
2022-10-10T06:49:14.275Z,91.61
2022-10-10T06:50:18.471Z,91.16
2022-10-10T06:51:21.488Z,90.27
2022-10-10T06:52:25.913Z,89.35
2022-10-10T06:53:28.912Z,88.10
2022-10-10T06:54:33.297Z,88.06
2022-10-10T06:55:36.292Z,87.00
2022-10-10T06:56:40.262Z,86.72
2022-10-10T06:57:43.197Z,86.81
2022-10-10T06:58:47.893Z,85.73
2022-10-10T06:59:52.499Z,85.99
2022-10-10T07:00:58.341Z,85.30
2022-10-10T07:02:01.316Z,85.66
2022-10-10T07:03:05.511Z,85.20
2022-10-10T07:04:11.040Z,84.52
2022-10-10T07:05:16.602Z,82.53
2022-10-10T07:06:20.873Z,83.00
2022-10-10T07:07:24.173Z,82.08
2022-10-10T07:08:28.703Z,82.29
2022-10-10T07:09:31.841Z,81.04
2022-10-10T07:10:36.047Z,80.44
2022-10-10T07:11:45.434Z,79.96
2022-10-10T07:12:49.766Z,79.40
2022-10-10T07:13:54.410Z,80.03
2022-10-10T07:14:58.826Z,79.00
2022-10-10T07:16:03.095Z,78.54
2022-10-10T07:17:06.061Z,78.36
2022-10-10T07:18:10.182Z,78.75
2022-10-10T07:19:13.593Z,79.46
2022-10-10T07:20:17.649Z,79.69
2022-10-10T07:21:21.950Z,79.17
2022-10-10T07:22:25.445Z,80.06
2022-10-10T07:23:29.872Z,78.78
2022-10-10T07:24:33.001Z,78.63
2022-10-10T07:25:39.375Z,78.23
2022-10-10T07:26:43.432Z,78.46
2022-10-10T07:27:46.413Z,76.43
2022-10-10T07:28:50.510Z,76.53
2022-10-10T07:29:53.596Z,75.49
2022-10-10T07:31:02.776Z,75.24
2022-10-10T07:32:05.781Z,73.85
2022-10-10T07:33:09.840Z,74.00
2022-10-10T07:34:12.814Z,73.11
2022-10-10T07:35:16.961Z,72.99
2022-10-10T07:36:19.944Z,73.17
2022-10-10T07:37:24.053Z,72.64
2022-10-10T07:38:28.292Z,72.36
2022-10-10T07:39:31.211Z,72.32
2022-10-10T07:40:35.218Z,72.29
2022-10-10T07:41:39.161Z,71.37
2022-10-10T07:42:42.065Z,70.24
2022-10-10T07:43:46.153Z,70.83
2022-10-10T07:44:49.135Z,69.93
2022-10-10T07:45:53.292Z,70.59
2022-10-10T07:46:57.679Z,70.73
2022-10-10T07:48:01.677Z,70.83
2022-10-10T07:49:04.722Z,70.17
2022-10-10T07:50:09.864Z,69.81
2022-10-10T07:51:12.949Z,68.79
2022-10-10T07:52:17.930Z,69.38
2022-10-10T07:53:22.238Z,69.97
2022-10-10T07:54:25.452Z,69.40
2022-10-10T07:55:29.911Z,69.07
2022-10-10T07:56:34.144Z,68.94
2022-10-10T07:57:37.742Z,68.84
2022-10-10T07:58:41.934Z,68.45
2022-10-10T07:59:45.962Z,68.45
2022-10-10T08:00:50.126Z,67.81
2022-10-10T08:01:53.644Z,67.65
2022-10-10T08:02:59.192Z,67.74
2022-10-10T08:04:02.253Z,67.06
2022-10-10T08:05:06.963Z,66.89
2022-10-10T08:06:14.019Z,67.46
2022-10-10T08:07:17.206Z,67.41
2022-10-10T08:08:21.352Z,67.53
2022-10-10T08:09:25.756Z,67.52
2022-10-10T08:10:29.029Z,67.38
2022-10-10T08:11:33.158Z,67.52
2022-10-10T08:12:36.544Z,68.42
2022-10-10T08:13:42.597Z,67.10
2022-10-10T08:14:46.718Z,67.17
2022-10-10T08:15:51.397Z,67.45
2022-10-10T08:16:55.561Z,67.80
2022-10-10T08:18:01.201Z,67.39
2022-10-10T08:19:05.536Z,66.98
2022-10-10T08:20:09.317Z,67.13
2022-10-10T08:21:14.878Z,66.80
2022-10-10T08:22:17.881Z,66.45
2022-10-10T08:23:23.794Z,66.56
2022-10-10T08:24:27.146Z,66.05
2022-10-10T08:25:31.278Z,65.73
2022-10-10T08:26:34.292Z,65.58
2022-10-10T08:27:38.480Z,65.48
2022-10-10T08:28:41.757Z,65.55
2022-10-10T08:29:45.884Z,66.25
2022-10-10T08:30:49.972Z,65.65
2022-10-10T08:31:53.119Z,65.44
2022-10-10T08:32:57.203Z,65.20
2022-10-10T08:34:02.141Z,65.22
2022-10-10T08:35:08.131Z,64.74
2022-10-10T08:36:13.307Z,64.88
2022-10-10T08:37:17.994Z,64.99
2022-10-10T08:38:21.288Z,64.20
2022-10-10T08:39:25.452Z,64.22
2022-10-10T08:40:30.206Z,63.88
2022-10-10T08:41:40.864Z,63.70
2022-10-10T08:42:52.521Z,63.66
2022-10-10T08:44:01.194Z,63.85
2022-10-10T08:45:10.624Z,63.43
2022-10-10T08:46:18.912Z,63.43
2022-10-10T08:47:25.372Z,63.25
2022-10-10T08:48:30.677Z,63.88
2022-10-10T08:49:39.001Z,63.00
2022-10-10T08:50:44.231Z,63.37
2022-10-10T08:51:53.884Z,63.34
2022-10-10T08:52:59.938Z,63.53
2022-10-10T08:54:05.012Z,63.34
2022-10-10T08:55:15.278Z,63.06
2022-10-10T08:56:21.834Z,63.42
2022-10-10T08:57:29.437Z,63.23
2022-10-10T08:58:35.289Z,62.47
2022-10-10T08:59:41.758Z,62.88
2022-10-10T09:00:48.295Z,62.52
2022-10-10T09:02:18.278Z,62.34
2022-10-10T09:03:26.013Z,61.98
2022-10-10T09:04:32.662Z,62.37
2022-10-10T09:05:49.858Z,61.99
2022-10-10T09:07:02.302Z,61.98
2022-10-10T09:08:17.616Z,61.59
2022-10-10T09:09:29.476Z,61.49
2022-10-10T09:10:36.541Z,61.10
2022-10-10T09:11:50.670Z,60.37
2022-10-10T09:12:59.706Z,60.26
2022-10-10T09:14:16.202Z,59.23
2022-10-10T09:15:22.036Z,59.97
2022-10-10T09:16:33.823Z,60.41
2022-10-10T09:17:41.037Z,60.19
2022-10-10T09:18:55.957Z,60.32
2022-10-10T09:20:07.939Z,60.64
2022-10-10T09:21:16.546Z,60.25
2022-10-10T09:22:25.384Z,60.34
2022-10-10T09:23:32.835Z,59.79
2022-10-10T09:24:42.610Z,60.31
2022-10-10T09:25:52.760Z,60.20
2022-10-10T09:27:00.831Z,60.17
2022-10-10T09:28:09.268Z,59.59
2022-10-10T09:29:28.801Z,59.32
2022-10-10T09:30:32.891Z,59.76
2022-10-10T09:31:39.580Z,59.67
2022-10-10T09:32:43.983Z,59.41
2022-10-10T09:33:53.678Z,59.56
2022-10-10T09:35:01.950Z,59.49
2022-10-10T09:36:08.710Z,59.14
2022-10-10T09:37:35.284Z,58.77
2022-10-10T09:38:45.361Z,58.59
2022-10-10T09:39:53.445Z,58.66
2022-10-10T09:40:59.411Z,59.33
2022-10-10T09:42:06.207Z,59.38
2022-10-10T09:43:12.923Z,59.48
2022-10-10T09:44:17.036Z,59.26
2022-10-10T09:45:22.013Z,59.64
2022-10-10T09:46:26.644Z,59.35
2022-10-10T09:47:30.774Z,58.93
2022-10-10T09:48:36.172Z,58.49
2022-10-10T09:49:39.082Z,58.47
2022-10-10T09:50:43.944Z,59.05
2022-10-10T09:51:49.676Z,58.50
2022-10-10T09:52:54.260Z,57.95
2022-10-10T09:53:58.262Z,58.06
2022-10-10T09:55:03.292Z,58.00
2022-10-10T09:56:08.093Z,57.94
2022-10-10T09:57:13.489Z,57.70
2022-10-10T09:58:25.440Z,57.74
2022-10-10T09:59:40.096Z,57.80
2022-10-10T10:00:44.344Z,57.64
2022-10-10T10:02:03.617Z,57.36
2022-10-10T10:03:15.641Z,57.82
2022-10-10T10:04:28.647Z,57.99
2022-10-10T10:05:33.361Z,58.06
2022-10-10T10:06:37.839Z,58.06
2022-10-10T10:07:48.929Z,58.15
2022-10-10T10:08:54.936Z,57.90
2022-10-10T10:09:59.958Z,57.38
2022-10-10T10:11:05.178Z,57.30
2022-10-10T10:12:08.291Z,57.09
2022-10-10T10:13:15.171Z,57.61
2022-10-10T10:14:27.087Z,57.13
2022-10-10T10:15:33.331Z,57.65
2022-10-10T10:16:40.412Z,58.01
2022-10-10T10:17:43.478Z,57.49
2022-10-10T10:18:48.417Z,58.06
2022-10-10T10:19:52.200Z,58.44
2022-10-10T10:21:12.062Z,57.85
2022-10-10T10:22:34.529Z,57.49
2022-10-10T10:23:42.776Z,57.59
2022-10-10T10:24:48.241Z,57.71
2022-10-10T10:25:58.431Z,57.90
2022-10-10T10:27:11.118Z,57.70
2022-10-10T10:28:21.358Z,57.47
2022-10-10T10:29:30.327Z,57.57
2022-10-10T10:30:34.401Z,57.43
2022-10-10T10:31:58.112Z,57.13
2022-10-10T10:33:06.051Z,57.40
2022-10-10T10:34:24.508Z,56.19
2022-10-10T10:35:30.603Z,56.51
2022-10-10T10:36:40.781Z,56.64
2022-10-10T10:37:53.830Z,56.08
2022-10-10T10:39:05.181Z,56.15
2022-10-10T10:40:23.034Z,56.30
2022-10-10T10:41:31.800Z,56.17
2022-10-10T10:42:44.001Z,56.67
2022-10-10T10:44:10.601Z,56.00
2022-10-10T10:45:16.910Z,56.06
2022-10-10T10:46:29.191Z,55.75
2022-10-10T10:47:41.073Z,55.02
2022-10-10T10:48:47.142Z,54.88
2022-10-10T10:49:59.240Z,54.93
2022-10-10T10:51:08.519Z,54.76
2022-10-10T10:52:21.954Z,54.72
2022-10-10T10:53:30.829Z,54.89
2022-10-10T10:54:59.500Z,54.80
2022-10-10T10:56:13.412Z,54.41
2022-10-10T10:57:32.951Z,53.89
2022-10-10T10:59:23.536Z,54.17
2022-10-10T11:01:19.890Z,55.03
2022-10-10T11:01:57.010Z,54.95
2022-10-10T11:03:35.056Z,54.05
2022-10-10T11:05:19.330Z,52.55
2022-10-10T11:06:34.041Z,53.08
2022-10-10T11:07:45.474Z,53.88
2022-10-10T11:08:56.102Z,53.77
2022-10-10T11:10:03.306Z,53.69
2022-10-10T11:11:24.634Z,54.05
2022-10-10T11:12:46.231Z,54.21
2022-10-10T11:13:55.503Z,54.77
2022-10-10T11:15:02.849Z,53.41
2022-10-10T11:16:20.335Z,53.33
2022-10-10T11:17:38.974Z,53.29
2022-10-10T11:18:46.092Z,53.25
2022-10-10T11:19:57.074Z,53.23
2022-10-10T11:21:05.650Z,52.93
2022-10-10T11:22:11.938Z,53.09
2022-10-10T11:23:20.036Z,53.15
2022-10-10T11:24:33.822Z,53.06
2022-10-10T11:25:43.172Z,53.29
2022-10-10T11:26:51.356Z,53.19
2022-10-10T11:27:57.858Z,53.08
2022-10-10T11:29:03.884Z,53.27
2022-10-10T11:30:14.501Z,52.85
2022-10-10T11:31:20.909Z,52.43
2022-10-10T11:32:29.789Z,51.90
2022-10-10T11:33:37.013Z,51.84
2022-10-10T11:34:43.819Z,51.59
2022-10-10T11:35:51.761Z,51.42
2022-10-10T11:36:56.469Z,51.29
2022-10-10T11:38:03.739Z,51.18
2022-10-10T11:39:16.049Z,50.78
2022-10-10T11:40:34.872Z,50.84
2022-10-10T11:41:41.427Z,51.44
2022-10-10T11:42:50.252Z,51.14
2022-10-10T11:43:57.476Z,50.58
2022-10-10T11:45:03.868Z,50.39
2022-10-10T11:46:15.630Z,50.37
2022-10-10T11:47:24.892Z,50.71
2022-10-10T11:48:36.843Z,50.56
2022-10-10T11:49:45.250Z,50.41
2022-10-10T11:50:53.422Z,50.21
2022-10-10T11:52:35.400Z,50.44
2022-10-10T11:53:43.378Z,51.29
2022-10-10T11:54:51.717Z,50.32
2022-10-10T11:55:58.918Z,50.55
2022-10-10T11:57:05.991Z,50.21
2022-10-10T11:58:28.710Z,48.67
2022-10-10T11:59:35.172Z,50.24
2022-10-10T12:00:41.780Z,49.99
2022-10-10T12:01:49.934Z,49.42
2022-10-10T12:02:56.560Z,49.47
2022-10-10T12:04:00.663Z,49.68
2022-10-10T12:05:06.403Z,48.97
2022-10-10T12:06:15.480Z,49.32
2022-10-10T12:07:23.273Z,48.69
2022-10-10T12:08:31.256Z,47.66
2022-10-10T12:09:39.088Z,47.57
2022-10-10T12:10:46.422Z,48.56
2022-10-10T12:11:55.211Z,47.73
2022-10-10T12:13:04.759Z,47.30
2022-10-10T12:14:10.854Z,46.89
2022-10-10T12:15:27.601Z,45.92
2022-10-10T12:16:32.051Z,46.71
2022-10-10T12:17:43.734Z,47.29
2022-10-10T12:18:51.510Z,46.35
2022-10-10T12:19:55.915Z,46.02
2022-10-10T12:21:08.268Z,45.51
2022-10-10T12:22:23.980Z,45.77
2022-10-10T12:23:30.260Z,46.16
2022-10-10T12:24:38.640Z,45.67
2022-10-10T12:25:46.325Z,45.47
2022-10-10T12:27:11.859Z,44.29
2022-10-10T12:28:28.345Z,44.55
2022-10-10T12:29:46.817Z,44.60
2022-10-10T12:31:31.515Z,43.31
2022-10-10T12:32:42.410Z,45.20
2022-10-10T12:34:15.413Z,43.81
2022-10-10T12:35:38.691Z,43.33
2022-10-10T12:37:18.517Z,43.23
2022-10-10T12:38:24.301Z,44.68
2022-10-10T12:39:36.090Z,44.34
2022-10-10T12:41:11.783Z,44.68
2022-10-10T12:42:36.473Z,44.28
2022-10-10T12:43:46.069Z,45.87
2022-10-10T12:44:51.853Z,45.20
2022-10-10T12:46:08.509Z,44.08
2022-10-10T12:47:59.658Z,42.33
2022-10-10T12:49:01.410Z,43.82
2022-10-10T12:50:08.211Z,43.40
2022-10-10T12:51:20.892Z,42.76
2022-10-10T12:52:27.931Z,43.13
2022-10-10T12:53:33.825Z,43.01
2022-10-10T12:54:41.676Z,42.76
2022-10-10T12:55:47.302Z,42.84
2022-10-10T12:56:53.476Z,42.41
2022-10-10T12:57:59.920Z,43.26
2022-10-10T12:59:03.510Z,42.50
2022-10-10T13:00:17.874Z,41.68
2022-10-10T13:01:25.763Z,41.92
2022-10-10T13:02:30.204Z,42.46
2022-10-10T13:03:35.443Z,42.20
2022-10-10T13:04:44.190Z,42.08
2022-10-10T13:05:48.238Z,41.60
2022-10-10T13:06:56.277Z,41.41
2022-10-10T13:08:01.237Z,41.05
2022-10-10T13:09:06.918Z,41.04
2022-10-10T13:10:22.508Z,40.36
2022-10-10T13:11:25.685Z,41.21
2022-10-10T13:12:32.592Z,41.56
2022-10-10T13:13:35.912Z,40.59
2022-10-10T13:14:42.053Z,40.77
2022-10-10T13:15:55.061Z,39.70
2022-10-10T13:16:59.443Z,40.43
2022-10-10T13:18:03.651Z,40.15
2022-10-10T13:19:06.935Z,40.44
2022-10-10T13:20:28.902Z,40.03
2022-10-10T13:21:35.173Z,40.95
2022-10-10T13:22:38.521Z,40.44
2022-10-10T13:25:11.788Z,40.16
2022-10-10T13:26:28.023Z,39.77
2022-10-10T13:27:33.911Z,40.41
2022-10-10T13:28:37.495Z,40.23
2022-10-10T13:29:42.421Z,40.31
2022-10-10T13:30:47.340Z,40.32
2022-10-10T13:31:52.600Z,39.66
2022-10-10T13:32:57.520Z,39.92
2022-10-10T13:34:03.813Z,39.96
2022-10-10T13:35:15.281Z,39.88
2022-10-10T13:36:21.558Z,40.05
2022-10-10T13:37:26.076Z,40.13
2022-10-10T13:38:29.106Z,40.35
2022-10-10T13:39:35.781Z,40.25
2022-10-10T13:40:40.230Z,40.50
2022-10-10T13:41:45.739Z,40.60
2022-10-10T13:42:50.151Z,40.56
2022-10-10T13:43:53.741Z,41.25
2022-10-10T13:45:00.417Z,42.17
2022-10-10T13:46:05.632Z,42.37
2022-10-10T13:48:01.562Z,40.53
2022-10-10T13:49:15.553Z,41.60
2022-10-10T13:50:22.349Z,42.26
2022-10-10T13:51:44.117Z,42.16
2022-10-10T13:52:47.193Z,42.41
2022-10-10T13:53:53.272Z,42.72
2022-10-10T13:55:16.242Z,41.99
2022-10-10T13:56:26.253Z,42.90
2022-10-10T13:57:29.189Z,43.11
2022-10-10T13:58:39.441Z,43.25
2022-10-10T13:59:43.924Z,43.35
2022-10-10T14:00:55.428Z,42.83
2022-10-10T14:02:02.162Z,42.40
2022-10-10T14:03:13.902Z,42.73
2022-10-10T14:04:21.920Z,42.85
2022-10-10T14:05:28.854Z,42.89
2022-10-10T14:06:33.212Z,42.76
2022-10-10T14:07:36.413Z,42.99
2022-10-10T14:08:41.610Z,43.05
2022-10-10T14:09:52.624Z,43.08
2022-10-10T14:10:58.564Z,42.51
2022-10-10T14:12:04.583Z,43.04
2022-10-10T14:13:18.949Z,42.98
2022-10-10T14:14:25.195Z,43.34
2022-10-10T14:15:35.289Z,43.28
2022-10-10T14:16:39.242Z,43.57
2022-10-10T14:17:42.194Z,43.61
2022-10-10T14:18:46.386Z,43.99
2022-10-10T14:19:51.960Z,43.70
2022-10-10T14:20:56.469Z,44.00
2022-10-10T14:22:00.772Z,43.63
2022-10-10T14:23:05.071Z,43.57
2022-10-10T14:24:10.079Z,43.35
2022-10-10T14:25:13.188Z,43.42